KPMU/PMU METAR and TAF weather

Enter ICAO airport designator
Station Type Date Time Source
KPMU METAR 2021/03/07 08:15 UTC NOAA

KPMU 070815Z AUTO 00000KT 10SM BKN038 BKN055 BKN065 00/M01 A3035 RMK AO2


Station Type Date Time Source
KPMU Decoded METAR 2021/03/07 08:15 UTC NOAA

Station name not available
Mar 07, 2021 - 03:15 AM EST / 2021.03.07 0815 UTC
Wind: Calm:0
Visibility: 10 mile(s):0
Sky conditions: mostly cloudy
Temperature: 32 F (0 C)
Dew Point: 30 F (-1 C)
Relative Humidity: 92%
Pressure (altimeter): 30.35 in. Hg (1027 hPa)
ob: KPMU 070815Z AUTO 00000KT 10SM BKN038 BKN055 BKN065 00/M01 A3035 RMK AO2
cycle: 8

Station Type Date Time Source
KPMU TAF UTC NOAA

Error!

Example: see airport list